עמוד ראשי
METAR-TAF:

METAR-TAF

שדות תעופה :

Bullhead City, אריזונה, ארצות הברית

קו רוחב: 35-09-27N, קו אורך: 114-33-34W, גובה: 212מטר

תצפית מזג אוויר נוכחית

הדו"ח נערך לפני 20דקות, בשעה 12:35 UTC
רוח רגועה
טמפרטורת 37 צלסיוס
לחות 21%
לחץ 1013 hPa
ראות: 16.1קילומטר
שמיים נקיים

METAR: KIFP 251235Z AUTO 00000KT 10SM CLR 37/11 A2991 RMK AO2

זמן: 05:55 (12:55 UTC)

תחזית

הדו"ח נערך לפני 1 שעות ו 35דקות, בשעה 11:20 UTC
תחזית בתוקף מ 25 ב 12 UTC עד 26 ב 12 UTC
רוח 6קשר עם כיוונים משתנים
ראות: 10קילומטר
שמיים נקיים
מ 25 ב 1900UTC
רוח 11קשר מכיוון דרום
ראות: 10קילומטר
מעט עננים בגובה 12000רגל
מ 26 ב 0300UTC
רוח 7קשר מכיוון דרום/דרום-מזרח
ראות: 10קילומטר
מעט עננים בגובה 12000רגל

TAF: KIFP 251120Z 2512/2612 VRB06KT P6SM SKC FM251900 19011KT P6SM FEW120 FM260300 16007KT P6SM FEW120

תצפיות ותחזיות מזג אוויר לגבי יותר מ- 4,000 שדות תעופה ברחבי העולם. דוחות METAR ו- TAF.

התחנות הזמינות מסומנות בנקודות צהובות ואדומות על גבי המפה.

העבר את העכבר לנקודה הצבעונית על מנת לראות את שם התחנה.

לאחר מכן, לחץ כדי לראות את תוכן ואת תחזיות מזג האוויר.

כדי לשנות את המפה: לחץ על הכפתורים הירוקים עם הפלוס השחור כדי להתקרב; על הכפתור הירוק עם המקף כדי להתרחק; או בחיצים הירוקים למפות סמוכות.


METAR-TAF: